| time (UTC) | temp C | wind direction | speed KPH | gust KPH | rain 1hr cm | rain 24hr cm | rain mn cm | humidity % | barometer mb |
| 20260507211732 | 18 | 269 | 4.8 | 6.4 | 0.00 | 0.00 | 0.00 | 35 | 1009.0 |
| 20260507211228 | 18 | 48 | 4.8 | 11.3 | 0.00 | 0.00 | 0.00 | 33 | 1009.0 |
| 20260507210725 | 19 | 314 | 6.4 | 17.7 | 0.00 | 0.00 | 0.00 | 36 | 1009.0 |
| 20260507210222 | 19 | 26 | 4.8 | 6.4 | 0.00 | 0.00 | 0.00 | 35 | 1009.0 |
| 20260507205718 | 18 | 328 | 1.6 | 3.2 | 0.00 | 0.00 | 0.00 | 35 | 1009.0 |
| 20260507205215 | 18 | 288 | 3.2 | 14.5 | 0.00 | 0.00 | 0.00 | 34 | 1009.0 |
| 20260507204711 | 19 | 338 | 3.2 | 11.3 | 0.00 | 0.00 | 0.00 | 33 | 1008.9 |
| 20260507204209 | 20 | 275 | 6.4 | 12.9 | 0.00 | 0.00 | 0.00 | 35 | 1009.3 |
| 20260507203707 | 19 | 280 | 9.7 | 12.9 | 0.00 | 0.00 | 0.00 | 34 | 1009.3 |
| 20260507203204 | 19 | 328 | 4.8 | 6.4 | 0.00 | 0.00 | 0.00 | 33 | 1009.2 |
| 20260507202659 | 19 | 347 | 9.7 | 20.9 | 0.00 | 0.00 | 0.00 | 33 | 1009.4 |
| 20260507202155 | 19 | 313 | 14.5 | 25.7 | 0.00 | 0.00 | 0.00 | 32 | 1009.3 |
| 20260507201650 | 18 | 316 | 4.8 | 14.5 | 0.00 | 0.00 | 0.00 | 34 | 1009.2 |
| 20260507201148 | 19 | 303 | 12.9 | 16.1 | 0.00 | 0.00 | 0.00 | 33 | 1009.3 |
| 20260507200644 | 20 | 17 | 4.8 | 6.4 | 0.00 | 0.00 | 0.00 | 35 | 1009.4 |
| 20260507200140 | 19 | 29 | 9.7 | 17.7 | 0.00 | 0.00 | 0.00 | 34 | 1009.4 |
| 20260507195637 | 19 | 341 | 14.5 | 25.7 | 0.00 | 0.00 | 0.00 | 34 | 1009.4 |
| 20260507195134 | 20 | 322 | 6.4 | 16.1 | 0.00 | 0.00 | 0.00 | 35 | 1009.0 |
| 20260507194631 | 19 | 120 | 4.8 | 12.9 | 0.00 | 0.00 | 0.00 | 35 | 1009.2 |
| 20260507194126 | 18 | 304 | 3.2 | 4.8 | 0.00 | 0.00 | 0.00 | 35 | 1009.3 |
| 20260507193624 | 18 | 317 | 8.0 | 12.9 | 0.00 | 0.00 | 0.00 | 34 | 1009.5 |
| 20260507193121 | 20 | 27 | 1.6 | 6.4 | 0.00 | 0.00 | 0.00 | 33 | 1009.2 |
| 20260507192617 | 20 | 37 | 11.3 | 16.1 | 0.00 | 0.00 | 0.00 | 32 | 1009.4 |
| 20260507192114 | 20 | 330 | 6.4 | 11.3 | 0.00 | 0.00 | 0.00 | 32 | 1009.6 |
| 20260507191610 | 20 | 288 | 4.8 | 9.7 | 0.00 | 0.00 | 0.00 | 37 | 1009.4 |
| 20260507191107 | 19 | 30 | 3.2 | 11.3 | 0.00 | 0.00 | 0.00 | 34 | 1009.6 |
| 20260507190604 | 19 | 322 | 4.8 | 16.1 | 0.00 | 0.00 | 0.00 | 34 | 1009.7 |
| 20260507185601 | 18 | 318 | 3.2 | 12.9 | 0.00 | 0.00 | 0.00 | 34 | 1009.6 |
| 20260507185057 | 19 | 328 | 11.3 | 14.5 | 0.00 | 0.00 | 0.00 | 35 | 1009.8 |
| 20260507184555 | 19 | 326 | 8.0 | 11.3 | 0.00 | 0.00 | 0.00 | 39 | 1009.6 |
| 20260507184052 | 18 | 284 | 4.8 | 9.7 | 0.00 | 0.00 | 0.00 | 36 | 1010.0 |
| 20260507183548 | 18 | 359 | 9.7 | 17.7 | 0.00 | 0.00 | 0.00 | 36 | 1009.6 |
| 20260507183046 | 18 | 338 | 14.5 | 20.9 | 0.00 | 0.00 | 0.00 | 36 | 1009.8 |
| 20260507182542 | 17 | 269 | 4.8 | 11.3 | 0.00 | 0.00 | 0.00 | 37 | 1009.8 |
| 20260507182038 | 17 | 30 | 14.5 | 22.5 | 0.00 | 0.00 | 0.00 | 37 | 1010.0 |
| 20260507181535 | 17 | 78 | 1.6 | 4.8 | 0.00 | 0.00 | 0.00 | 40 | 1010.0 |
| 20260507181031 | 18 | 162 | 1.6 | 11.3 | 0.00 | 0.00 | 0.00 | 42 | 1010.0 |
| 20260507180527 | 18 | 129 | 6.4 | 9.7 | 0.00 | 0.00 | 0.00 | 39 | 1010.0 |
| 20260507180025 | 18 | 261 | 3.2 | 9.7 | 0.00 | 0.00 | 0.00 | 42 | 1010.2 |
| 20260507175521 | 18 | 241 | 9.7 | 14.5 | 0.00 | 0.00 | 0.00 | 38 | 1010.2 |
| 20260507175019 | 17 | 327 | 11.3 | 16.1 | 0.00 | 0.00 | 0.00 | 40 | 1010.3 |
| 20260507174515 | 17 | 303 | 1.6 | 11.3 | 0.00 | 0.00 | 0.00 | 41 | 1010.4 |
| 20260507174013 | 17 | 296 | 6.4 | 17.7 | 0.00 | 0.00 | 0.00 | 42 | 1010.4 |
| 20260507173510 | 17 | 341 | 8.0 | 9.7 | 0.00 | 0.00 | 0.00 | 42 | 1010.8 |
| 20260507173007 | 17 | 307 | 9.7 | 14.5 | 0.00 | 0.00 | 0.00 | 42 | 1010.5 |
| 20260507172503 | 17 | 311 | 6.4 | 9.7 | 0.00 | 0.00 | 0.00 | 45 | 1010.8 |
| 20260507172000 | 17 | 330 | 1.6 | 4.8 | 0.00 | 0.00 | 0.00 | 45 | 1011.0 |
| 20260507171455 | 17 | 79 | 3.2 | 9.7 | 0.00 | 0.00 | 0.00 | 44 | 1011.1 |
| 20260507170953 | 16 | 266 | 6.4 | 14.5 | 0.00 | 0.00 | 0.00 | 45 | 1011.0 |
| 20260507170449 | 16 | 271 | 9.7 | 14.5 | 0.00 | 0.00 | 0.00 | 45 | 1011.3 |
| 20260507165946 | 17 | 322 | 11.3 | 16.1 | 0.00 | 0.00 | 0.00 | 43 | 1011.3 |
| 20260507165442 | 17 | 298 | 8.0 | 16.1 | 0.00 | 0.00 | 0.00 | 43 | 1011.4 |
| 20260507164938 | 17 | 334 | 6.4 | 12.9 | 0.00 | 0.00 | 0.00 | 43 | 1011.5 |
| 20260507164435 | 17 | 343 | 8.0 | 11.3 | 0.00 | 0.00 | 0.00 | 45 | 1011.4 |
| 20260507163932 | 17 | 278 | 3.2 | 11.3 | 0.00 | 0.00 | 0.00 | 42 | 1011.5 |
| 20260507163429 | 16 | 330 | 3.2 | 3.2 | 0.00 | 0.00 | 0.00 | 45 | 1011.5 |
| 20260507162926 | 17 | 341 | 4.8 | 11.3 | 0.00 | 0.00 | 0.00 | 44 | 1011.6 |
| 20260507162421 | 15 | 44 | 4.8 | 6.4 | 0.00 | 0.00 | 0.00 | 46 | 1011.8 |
| 20260507161919 | 15 | 341 | 6.4 | 14.5 | 0.00 | 0.00 | 0.00 | 45 | 1011.8 |
| 20260507161415 | 16 | 8 | 14.5 | 16.1 | 0.00 | 0.00 | 0.00 | 45 | 1011.9 |
| 20260507160912 | 16 | 259 | 3.2 | 3.2 | 0.00 | 0.00 | 0.00 | 46 | 1011.9 |
| 20260507160408 | 16 | 296 | 6.4 | 9.7 | 0.00 | 0.00 | 0.00 | 48 | 1012.2 |
| 20260507155904 | 15 | 78 | 0.0 | 4.8 | 0.00 | 0.00 | 0.00 | 49 | 1012.2 |
| 20260507155400 | 15 | 241 | 8.0 | 11.3 | 0.00 | 0.00 | 0.00 | 49 | 1012.2 |
| 20260507154857 | 15 | 301 | 6.4 | 11.3 | 0.00 | 0.00 | 0.00 | 50 | 1012.3 |
| 20260507154354 | 15 | 214 | 3.2 | 11.3 | 0.00 | 0.00 | 0.00 | 55 | 1012.4 |
| 20260507153851 | 15 | 48 | 6.4 | 11.3 | 0.00 | 0.00 | 0.00 | 48 | 1012.4 |
| 20260507153347 | 14 | 247 | 1.6 | 6.4 | 0.00 | 0.00 | 0.00 | 49 | 1012.6 |
| 20260507152844 | 15 | 104 | 3.2 | 6.4 | 0.00 | 0.00 | 0.00 | 50 | 1012.7 |
| 20260507152340 | 14 | 276 | 0.0 | 4.8 | 0.00 | 0.00 | 0.00 | 53 | 1012.5 |
| 20260507151836 | 14 | 16 | 3.2 | 9.7 | 0.00 | 0.00 | 0.00 | 49 | 1012.7 |
| 20260507151332 | 13 | 295 | 6.4 | 12.9 | 0.00 | 0.00 | 0.00 | 53 | 1012.7 |
| 20260507150830 | 13 | 338 | 9.7 | 17.7 | 0.00 | 0.00 | 0.00 | 50 | 1012.9 |
| 20260507150326 | 13 | 159 | 4.8 | 4.8 | 0.00 | 0.00 | 0.00 | 50 | 1013.1 |
| 20260507145822 | 13 | 335 | 8.0 | 11.3 | 0.00 | 0.00 | 0.00 | 49 | 1013.3 |
| 20260507145319 | 13 | 62 | 3.2 | 11.3 | 0.00 | 0.00 | 0.00 | 48 | 1013.2 |
| 20260507144816 | 13 | 307 | 3.2 | 6.4 | 0.00 | 0.00 | 0.00 | 53 | 1013.4 |
| 20260507144313 | 14 | 303 | 6.4 | 9.7 | 0.00 | 0.00 | 0.00 | 48 | 1013.4 |
| 20260507143810 | 13 | 326 | 1.6 | 4.8 | 0.00 | 0.00 | 0.00 | 50 | 1013.4 |
| 20260507143307 | 13 | 355 | 4.8 | 11.3 | 0.00 | 0.00 | 0.00 | 53 | 1013.5 |
| 20260507142803 | 13 | 93 | 3.2 | 11.3 | 0.00 | 0.00 | 0.00 | 53 | 1013.7 |
| 20260507142300 | 12 | 340 | 9.7 | 12.9 | 0.00 | 0.00 | 0.00 | 51 | 1013.6 |
| 20260507141756 | 13 | 31 | 1.6 | 4.8 | 0.00 | 0.00 | 0.00 | 51 | 1013.7 |
| 20260507141254 | 12 | 322 | 1.6 | 3.2 | 0.00 | 0.00 | 0.00 | 54 | 1013.8 |
| 20260507140749 | 12 | 30 | 3.2 | 6.4 | 0.00 | 0.00 | 0.00 | 56 | 1013.9 |
| 20260507140247 | 12 | 49 | 3.2 | 6.4 | 0.00 | 0.00 | 0.00 | 55 | 1014.0 |
| 20260507135744 | 12 | 25 | 0.0 | 3.2 | 0.00 | 0.00 | 0.00 | 58 | 1014.1 |
| 20260507135241 | 12 | 25 | 1.6 | 3.2 | 0.00 | 0.00 | 0.00 | 56 | 1013.9 |
| 20260507134737 | 11 | 25 | 1.6 | 4.8 | 0.00 | 0.00 | 0.00 | 57 | 1014.0 |
| 20260507134234 | 11 | 116 | 1.6 | 3.2 | 0.00 | 0.00 | 0.00 | 57 | 1014.3 |
| 20260507133730 | 11 | 26 | 3.2 | 3.2 | 0.00 | 0.00 | 0.00 | 59 | 1014.3 |
| 20260507133227 | 11 | 87 | 6.4 | 9.7 | 0.00 | 0.00 | 0.00 | 56 | 1014.5 |
| 20260507132724 | 11 | 101 | 0.0 | 3.2 | 0.00 | 0.00 | 0.00 | 62 | 1014.3 |
| 20260507132221 | 11 | 321 | 3.2 | 4.8 | 0.00 | 0.00 | 0.00 | 60 | 1014.4 |
| 20260507131717 | 11 | 19 | 6.4 | 9.7 | 0.00 | 0.00 | 0.00 | 60 | 1014.4 |
| 20260507131215 | 11 | 27 | 3.2 | 4.8 | 0.00 | 0.00 | 0.00 | 60 | 1014.5 |
| 20260507130712 | 11 | 43 | 3.2 | 4.8 | 0.00 | 0.00 | 0.00 | 62 | 1014.3 |
| 20260507130210 | 11 | 20 | 6.4 | 9.7 | 0.00 | 0.00 | 0.00 | 60 | 1014.5 |
| 20260507125708 | 11 | 113 | 0.0 | 1.6 | 0.00 | 0.00 | 0.00 | 60 | 1014.5 |
| 20260507125205 | 11 | 47 | 1.6 | 1.6 | 0.00 | 0.00 | 0.00 | 61 | 1014.3 |
| 20260507124701 | 11 | 355 | 0.0 | 1.6 | 0.00 | 0.00 | 0.00 | 59 | 1014.4 |
| 20260507124159 | 11 | 9 | 1.6 | 1.6 | 0.00 | 0.00 | 0.00 | 63 | 1014.6 |
| 20260507123657 | 10 | 61 | 0.0 | 1.6 | 0.00 | 0.00 | 0.00 | 66 | 1014.5 |
| 20260507123154 | 10 | 57 | 1.6 | 1.6 | 0.00 | 0.00 | 0.00 | 65 | 1014.8 |
| 20260507122649 | 10 | 57 | 0.0 | 1.6 | 0.00 | 0.00 | 0.00 | 66 | 1014.6 |
| 20260507122145 | 10 | 57 | 0.0 | 1.6 | 0.00 | 0.00 | 0.00 | 68 | 1014.6 |
| 20260507121641 | 10 | 43 | 0.0 | 1.6 | 0.00 | 0.00 | 0.00 | 66 | 1014.7 |
| 20260507121137 | 10 | 47 | 0.0 | 1.6 | 0.00 | 0.00 | 0.00 | 68 | 1014.6 |
| 20260507120634 | 10 | 94 | 3.2 | 3.2 | 0.00 | 0.00 | 0.00 | 65 | 1014.4 |
| 20260507120130 | 10 | 115 | 0.0 | 3.2 | 0.00 | 0.00 | 0.00 | 67 | 1014.4 |
| 20260507115627 | 10 | 80 | 1.6 | 4.8 | 0.00 | 0.00 | 0.00 | 65 | 1014.1 |
| 20260507115122 | 10 | 84 | 0.0 | 4.8 | 0.00 | 0.00 | 0.00 | 67 | 1014.3 |
| 20260507114618 | 10 | 114 | 3.2 | 6.4 | 0.00 | 0.00 | 0.00 | 67 | 1014.2 |
| 20260507114116 | 10 | 110 | 0.0 | 3.2 | 0.00 | 0.00 | 0.00 | 68 | 1014.2 |
| 20260507113613 | 9 | 109 | 1.6 | 3.2 | 0.00 | 0.00 | 0.00 | 68 | 1014.3 |
| 20260507113110 | 9 | 90 | 1.6 | 4.8 | 0.00 | 0.00 | 0.00 | 69 | 1014.3 |
| 20260507112608 | 9 | 92 | 0.0 | 0.0 | 0.00 | 0.00 | 0.00 | 74 | 1014.0 |
| 20260507112104 | 9 | 92 | 0.0 | 3.2 | 0.00 | 0.00 | 0.00 | 73 | 1014.0 |
| 20260507111602 | 9 | 67 | 0.0 | 1.6 | 0.00 | 0.00 | 0.00 | 76 | 1014.0 |
| 20260507111058 | 10 | 67 | 0.0 | 1.6 | 0.00 | 0.00 | 0.00 | 76 | 1014.0 |
| 20260507110554 | 10 | 67 | 0.0 | 1.6 | 0.00 | 0.00 | 0.00 | 77 | 1014.0 |
| 20260507110051 | 10 | 67 | 1.6 | 3.2 | 0.00 | 0.00 | 0.00 | 77 | 1013.8 |
| 20260507105548 | 10 | 25 | 0.0 | 0.0 | 0.00 | 0.00 | 0.00 | 78 | 1013.9 |
| 20260507105044 | 10 | 25 | 0.0 | 0.0 | 0.00 | 0.00 | 0.00 | 77 | 1013.9 |
| 20260507104542 | 10 | 25 | 0.0 | 0.0 | 0.00 | 0.00 | 0.00 | 77 | 1013.8 |
| 20260507104038 | 10 | 25 | 0.0 | 1.6 | 0.00 | 0.00 | 0.00 | 75 | 1013.7 |
| 20260507103534 | 10 | 25 | 1.6 | 4.8 | 0.00 | 0.00 | 0.00 | 75 | 1013.9 |
| 20260507103031 | 10 | 344 | 1.6 | 1.6 | 0.00 | 0.00 | 0.00 | 76 | 1013.6 |
| 20260507102527 | 10 | 61 | 1.6 | 6.4 | 0.00 | 0.00 | 0.00 | 75 | 1013.5 |
| 20260507102023 | 10 | 16 | 3.2 | 6.4 | 0.00 | 0.00 | 0.00 | 77 | 1013.3 |
| 20260507101519 | 10 | 48 | 0.0 | 0.0 | 0.00 | 0.00 | 0.00 | 77 | 1013.4 |
| 20260507101016 | 10 | 128 | 1.6 | 1.6 | 0.00 | 0.00 | 0.00 | 77 | 1013.2 |
| 20260507100513 | 10 | 90 | 0.0 | 3.2 | 0.00 | 0.00 | 0.00 | 78 | 1013.3 |
| 20260507100011 | 10 | 92 | 0.0 | 3.2 | 0.00 | 0.00 | 0.00 | 79 | 1013.2 |
| 20260507095509 | 10 | 6 | 0.0 | 3.2 | 0.00 | 0.00 | 0.00 | 81 | 1013.3 |
| 20260507095005 | 10 | 358 | 0.0 | 0.0 | 0.00 | 0.00 | 0.00 | 81 | 1013.4 |
| 20260507094501 | 10 | 27 | 1.6 | 3.2 | 0.00 | 0.00 | 0.00 | 81 | 1013.2 |
| 20260507093959 | 10 | 108 | 0.0 | 1.6 | 0.00 | 0.00 | 0.00 | 81 | 1013.2 |
| 20260507093456 | 10 | 324 | 0.0 | 4.8 | 0.00 | 0.00 | 0.00 | 82 | 1013.1 |
| 20260507092954 | 10 | 94 | 0.0 | 3.2 | 0.00 | 0.00 | 0.00 | 84 | 1013.3 |
| 20260507092450 | 10 | 94 | 0.0 | 4.8 | 0.00 | 0.00 | 0.00 | 84 | 1013.1 |
| 20260507091947 | 10 | 94 | 1.6 | 3.2 | 0.00 | 0.00 | 0.00 | 84 | 1013.0 |
| 20260507091444 | 10 | 94 | 1.6 | 4.8 | 0.00 | 0.00 | 0.00 | 85 | 1012.9 |
| 20260507090940 | 10 | 127 | 0.0 | 0.0 | 0.00 | 0.00 | 0.00 | 86 | 1013.1 |
| 20260507090436 | 10 | 127 | 0.0 | 0.0 | 0.00 | 0.00 | 0.00 | 88 | 1013.0 |
| 20260507085932 | 10 | 127 | 0.0 | 0.0 | 0.00 | 0.00 | 0.00 | 87 | 1013.1 |
| 20260507085430 | 10 | 127 | 0.0 | 0.0 | 0.00 | 0.00 | 0.00 | 86 | 1013.2 |
| 20260507084927 | 10 | 127 | 0.0 | 0.0 | 0.00 | 0.00 | 0.00 | 86 | 1013.3 |
| 20260507084424 | 10 | 127 | 0.0 | 0.0 | 0.00 | 0.00 | 0.00 | 85 | 1013.2 |
| 20260507083921 | 10 | 127 | 0.0 | 3.2 | 0.00 | 0.00 | 0.00 | 85 | 1013.2 |
| 20260507083417 | 10 | 127 | 1.6 | 1.6 | 0.00 | 0.00 | 0.00 | 83 | 1013.1 |
| 20260507082913 | 10 | 127 | 0.0 | 0.0 | 0.00 | 0.00 | 0.00 | 85 | 1013.1 |
| 20260507082409 | 10 | 127 | 0.0 | 0.0 | 0.00 | 0.00 | 0.00 | 83 | 1013.2 |
| 20260507081906 | 10 | 127 | 0.0 | 0.0 | 0.00 | 0.00 | 0.00 | 83 | 1013.1 |
| 20260507081402 | 10 | 127 | 0.0 | 0.0 | 0.00 | 0.00 | 0.00 | 84 | 1013.0 |
| 20260507080859 | 10 | 127 | 0.0 | 0.0 | 0.00 | 0.00 | 0.00 | 84 | 1013.2 |
| 20260507080355 | 10 | 127 | 0.0 | 0.0 | 0.00 | 0.00 | 0.00 | 84 | 1013.0 |
| 20260507075851 | 10 | 127 | 0.0 | 0.0 | 0.00 | 0.00 | 0.00 | 86 | 1013.2 |
| 20260507075347 | 10 | 127 | 0.0 | 0.0 | 0.00 | 0.00 | 0.00 | 85 | 1013.0 |
| 20260507074844 | 10 | 127 | 0.0 | 1.6 | 0.00 | 0.00 | 0.00 | 82 | 1012.7 |
| 20260507074341 | 10 | 127 | 0.0 | 0.0 | 0.00 | 0.00 | 0.00 | 84 | 1012.7 |
| 20260507073838 | 10 | 127 | 0.0 | 0.0 | 0.00 | 0.00 | 0.00 | 84 | 1012.8 |
| 20260507073335 | 10 | 127 | 0.0 | 0.0 | 0.00 | 0.00 | 0.00 | 82 | 1012.7 |
| 20260507072832 | 10 | 128 | 1.6 | 1.6 | 0.00 | 0.00 | 0.00 | 83 | 1012.8 |
| 20260507072329 | 10 | 127 | 0.0 | 0.0 | 0.00 | 0.00 | 0.00 | 83 | 1012.9 |
| 20260507071827 | 10 | 127 | 3.2 | 3.2 | 0.00 | 0.00 | 0.00 | 83 | 1012.7 |
| 20260507071324 | 10 | 127 | 0.0 | 1.6 | 0.00 | 0.00 | 0.00 | 84 | 1012.8 |
| 20260507070820 | 10 | 127 | 0.0 | 0.0 | 0.00 | 0.00 | 0.00 | 84 | 1012.9 |
| 20260507070318 | 10 | 128 | 0.0 | 0.0 | 0.00 | 0.00 | 0.00 | 82 | 1012.7 |
| 20260507065814 | 11 | 127 | 0.0 | 0.0 | 0.00 | 0.00 | 0.00 | 83 | 1012.8 |
| 20260507065311 | 11 | 127 | 0.0 | 0.0 | 0.00 | 0.00 | 0.00 | 82 | 1012.7 |
| 20260507064808 | 11 | 127 | 0.0 | 0.0 | 0.00 | 0.00 | 0.00 | 81 | 1012.9 |
| 20260507064307 | 11 | 127 | 0.0 | 0.0 | 0.00 | 0.00 | 0.00 | 83 | 1012.7 |
| 20260507063804 | 10 | 128 | 3.2 | 4.8 | 0.00 | 0.00 | 0.00 | 83 | 1012.8 |
| 20260507063301 | 11 | 127 | 0.0 | 1.6 | 0.00 | 0.00 | 0.00 | 85 | 1013.3 |
| 20260507062757 | 11 | 127 | 1.6 | 1.6 | 0.00 | 0.00 | 0.00 | 84 | 1013.5 |
| 20260507062254 | 10 | 128 | 1.6 | 3.2 | 0.00 | 0.00 | 0.00 | 83 | 1013.4 |
| 20260507061752 | 10 | 127 | 0.0 | 0.0 | 0.00 | 0.00 | 0.00 | 84 | 1013.4 |
| 20260507061250 | 10 | 127 | 0.0 | 1.6 | 0.00 | 0.00 | 0.00 | 85 | 1013.3 |
| 20260507060748 | 10 | 128 | 1.6 | 3.2 | 0.00 | 0.00 | 0.00 | 86 | 1013.4 |
| 20260507060244 | 11 | 128 | 1.6 | 3.2 | 0.00 | 0.00 | 0.00 | 85 | 1013.4 |
| 20260507055741 | 11 | 127 | 0.0 | 3.2 | 0.00 | 0.00 | 0.00 | 84 | 1013.5 |
| 20260507055236 | 10 | 128 | 1.6 | 3.2 | 0.00 | 0.00 | 0.00 | 86 | 1013.5 |
| 20260507054733 | 10 | 302 | 3.2 | 12.9 | 0.00 | 0.00 | 0.00 | 83 | 1013.4 |
| 20260507054230 | 10 | 122 | 0.0 | 0.0 | 0.00 | 0.00 | 0.00 | 86 | 1013.5 |
| 20260507053727 | 10 | 122 | 0.0 | 4.8 | 0.00 | 0.00 | 0.00 | 85 | 1013.6 |
| 20260507053225 | 10 | 122 | 0.0 | 0.0 | 0.00 | 0.00 | 0.00 | 87 | 1013.4 |
| 20260507052724 | 10 | 122 | 0.0 | 1.6 | 0.00 | 0.00 | 0.00 | 87 | 1013.5 |
| 20260507052219 | 10 | 132 | 3.2 | 9.7 | 0.00 | 0.00 | 0.00 | 89 | 1013.4 |
| 20260507051718 | 10 | 67 | 1.6 | 3.2 | 0.00 | 0.00 | 0.00 | 87 | 1013.5 |
| 20260507051214 | 10 | 56 | 0.0 | 4.8 | 0.00 | 0.00 | 0.00 | 86 | 1013.5 |
| 20260507050711 | 10 | 27 | 1.6 | 1.6 | 0.00 | 0.00 | 0.00 | 89 | 1013.3 |
| 20260507050208 | 10 | 27 | 0.0 | 0.0 | 0.00 | 0.00 | 0.00 | 90 | 1013.1 |
| 20260507045704 | 10 | 2 | 1.6 | 1.6 | 0.00 | 0.00 | 0.00 | 90 | 1013.3 |
| 20260507045200 | 10 | 66 | 1.6 | 4.8 | 0.00 | 0.00 | 0.00 | 90 | 1013.1 |
| 20260507044658 | 10 | 92 | 0.0 | 3.2 | 0.00 | 0.00 | 0.00 | 91 | 1013.2 |
| 20260507044154 | 10 | 13 | 0.0 | 6.4 | 0.00 | 0.00 | 0.00 | 91 | 1013.0 |
| 20260507043651 | 10 | 97 | 3.2 | 4.8 | 0.00 | 0.00 | 0.00 | 91 | 1013.0 |
| 20260507043148 | 10 | 42 | 0.0 | 1.6 | 0.00 | 0.00 | 0.00 | 90 | 1013.1 |
| 20260507042644 | 11 | 36 | 4.8 | 9.7 | 0.00 | 0.00 | 0.00 | 88 | 1013.0 |
| 20260507042139 | 11 | 24 | 3.2 | 9.7 | 0.00 | 0.00 | 0.00 | 87 | 1013.3 |
| 20260507041636 | 11 | 27 | 1.6 | 6.4 | 0.00 | 0.00 | 0.00 | 87 | 1013.1 |
| 20260507041133 | 11 | 76 | 0.0 | 6.4 | 0.00 | 0.00 | 0.00 | 86 | 1013.2 |
| 20260507040630 | 11 | 52 | 1.6 | 4.8 | 0.00 | 0.00 | 0.00 | 87 | 1012.9 |
| 20260507040126 | 11 | 110 | 1.6 | 6.4 | 0.00 | 0.15 | 0.15 | 87 | 1012.7 |
| 20260507035622 | 11 | 90 | 8.0 | 11.3 | 0.00 | 0.15 | 0.15 | 88 | 1012.5 |
| 20260507035118 | 12 | 148 | 4.8 | 4.8 | 0.00 | 0.15 | 0.15 | 88 | 1013.2 |
| 20260507034615 | 12 | 71 | 3.2 | 11.3 | 0.00 | 0.15 | 0.15 | 87 | 1013.1 |
| 20260507034113 | 12 | 347 | 4.8 | 6.4 | 0.00 | 0.15 | 0.15 | 87 | 1013.1 |
| 20260507033611 | 12 | 49 | 3.2 | 6.4 | 0.00 | 0.15 | 0.15 | 87 | 1013.3 |
| 20260507033108 | 12 | 353 | 3.2 | 4.8 | 0.00 | 0.15 | 0.15 | 87 | 1012.8 |
| 20260507032605 | 12 | 83 | 0.0 | 3.2 | 0.00 | 0.15 | 0.15 | 87 | 1012.7 |
| 20260507032101 | 12 | 89 | 6.4 | 11.3 | 0.00 | 0.15 | 0.15 | 87 | 1012.8 |
| 20260507031558 | 12 | 138 | 1.6 | 3.2 | 0.00 | 0.15 | 0.15 | 87 | 1012.9 |
| 20260507031055 | 12 | 132 | 6.4 | 9.7 | 0.00 | 0.15 | 0.15 | 87 | 1012.6 |
| 20260507030551 | 12 | 126 | 1.6 | 6.4 | 0.00 | 0.15 | 0.15 | 87 | 1012.9 |
| 20260507030049 | 12 | 42 | 0.0 | 1.6 | 0.00 | 0.15 | 0.15 | 85 | 1013.3 |
| 20260507025546 | 12 | 42 | 1.6 | 6.4 | 0.00 | 0.15 | 0.15 | 85 | 1013.5 |
| 20260507025043 | 12 | 26 | 3.2 | 4.8 | 0.00 | 0.15 | 0.15 | 85 | 1013.1 |
| 20260507024541 | 12 | 354 | 3.2 | 3.2 | 0.00 | 0.15 | 0.15 | 85 | 1012.5 |
| 20260507024038 | 12 | 28 | 4.8 | 6.4 | 0.00 | 0.15 | 0.15 | 85 | 1012.7 |
| 20260507023533 | 12 | 23 | 3.2 | 6.4 | 0.00 | 0.15 | 0.15 | 86 | 1012.8 |
| 20260507023031 | 13 | 73 | 1.6 | 6.4 | 0.00 | 0.15 | 0.15 | 84 | 1012.8 |
| 20260507022528 | 13 | 30 | 3.2 | 4.8 | 0.00 | 0.15 | 0.15 | 84 | 1012.4 |
| 20260507022029 | 13 | 104 | 3.2 | 6.4 | 0.00 | 0.15 | 0.15 | 84 | 1012.7 |
| 20260507021525 | 13 | 122 | 4.8 | 4.8 | 0.00 | 0.15 | 0.15 | 85 | 1012.6 |
| 20260507021022 | 13 | 20 | 1.6 | 4.8 | 0.00 | 0.15 | 0.15 | 85 | 1012.7 |
| 20260507020519 | 13 | 102 | 3.2 | 9.7 | 0.00 | 0.15 | 0.15 | 85 | 1012.5 |
| 20260507020015 | 13 | 56 | 4.8 | 4.8 | 0.00 | 0.15 | 0.15 | 84 | 1012.0 |
| 20260507015514 | 13 | 56 | 0.0 | 4.8 | 0.00 | 0.15 | 0.15 | 84 | 1012.8 |
| 20260507015011 | 13 | 56 | 0.0 | 4.8 | 0.00 | 0.15 | 0.15 | 84 | 1012.2 |
| 20260507014507 | 13 | 43 | 3.2 | 4.8 | 0.00 | 0.15 | 0.15 | 84 | 1012.0 |
| 20260507014003 | 13 | 43 | 3.2 | 9.7 | 0.00 | 0.15 | 0.15 | 84 | 1011.9 |
| 20260507013500 | 13 | 97 | 0.0 | 6.4 | 0.00 | 0.15 | 0.15 | 83 | 1011.8 |
| 20260507012957 | 13 | 109 | 1.6 | 4.8 | 0.00 | 0.15 | 0.15 | 84 | 1012.2 |
| 20260507012454 | 13 | 8 | 1.6 | 4.8 | 0.00 | 0.15 | 0.15 | 84 | 1012.2 |
| 20260507011951 | 13 | 123 | 1.6 | 4.8 | 0.00 | 0.15 | 0.15 | 83 | 1012.3 |
| 20260507011448 | 13 | 22 | 8.0 | 12.9 | 0.00 | 0.15 | 0.15 | 83 | 1012.2 |
| 20260507010943 | 13 | 84 | 1.6 | 3.2 | 0.00 | 0.15 | 0.15 | 83 | 1012.2 |
| 20260507010438 | 13 | 2 | 3.2 | 6.4 | 0.00 | 0.15 | 0.15 | 83 | 1011.9 |
| 20260507005935 | 13 | 54 | 1.6 | 3.2 | 0.00 | 0.15 | 0.15 | 84 | 1011.7 |
| 20260507005433 | 14 | 334 | 1.6 | 1.6 | 0.00 | 0.15 | 0.15 | 85 | 1011.8 |
| 20260507004929 | 14 | 115 | 3.2 | 4.8 | 0.00 | 0.15 | 0.15 | 84 | 1011.5 |
| 20260507004426 | 14 | 117 | 3.2 | 9.7 | 0.00 | 0.15 | 0.15 | 85 | 1011.7 |
| 20260507003923 | 14 | 116 | 3.2 | 6.4 | 0.00 | 0.15 | 0.15 | 86 | 1011.8 |
| 20260507003418 | 14 | 93 | 6.4 | 6.4 | 0.00 | 0.15 | 0.15 | 86 | 1011.6 |
| 20260507002914 | 14 | 106 | 1.6 | 4.8 | 0.00 | 0.15 | 0.15 | 85 | 1011.8 |
| 20260507002410 | 15 | 328 | 0.0 | 0.0 | 0.00 | 0.15 | 0.15 | 87 | 1012.2 |
| 20260507001907 | 15 | 328 | 1.6 | 1.6 | 0.00 | 0.15 | 0.15 | 87 | 1012.0 |
| 20260507001404 | 15 | 80 | 1.6 | 3.2 | 0.00 | 0.15 | 0.15 | 86 | 1011.9 |
| 20260507000902 | 15 | 80 | 0.0 | 3.2 | 0.00 | 0.15 | 0.15 | 86 | 1011.9 |
| 20260507000357 | 15 | 81 | 0.0 | 3.2 | 0.00 | 0.15 | 0.15 | 87 | 1011.6 |
| 20260506235853 | 15 | 81 | 0.0 | 4.8 | 0.00 | 0.15 | 0.15 | 86 | 1012.0 |
| 20260506235350 | 15 | 81 | 0.0 | 3.2 | 0.00 | 0.15 | 0.15 | 86 | 1011.5 |
| 20260506234845 | 15 | 81 | 1.6 | 1.6 | 0.00 | 0.15 | 0.15 | 86 | 1011.8 |
| 20260506234344 | 15 | 81 | 0.0 | 0.0 | 0.00 | 0.15 | 0.15 | 87 | 1011.5 |
| 20260506233841 | 15 | 81 | 0.0 | 0.0 | 0.00 | 0.15 | 0.15 | 85 | 1011.6 |
| 20260506233337 | 15 | 81 | 0.0 | 0.0 | 0.00 | 0.15 | 0.15 | 86 | 1011.5 |
| 20260506232834 | 15 | 81 | 0.0 | 0.0 | 0.00 | 0.15 | 0.15 | 86 | 1011.4 |
| 20260506232330 | 15 | 81 | 0.0 | 4.8 | 0.00 | 0.15 | 0.15 | 86 | 1011.4 |
| 20260506231826 | 15 | 81 | 0.0 | 1.6 | 0.00 | 0.15 | 0.15 | 86 | 1011.3 |
| 20260506231324 | 16 | 81 | 0.0 | 4.8 | 0.00 | 0.15 | 0.15 | 87 | 1011.0 |
| 20260506230821 | 16 | 112 | 0.0 | 4.8 | 0.00 | 0.15 | 0.15 | 86 | 1010.8 |
| 20260506230318 | 16 | 11 | 0.0 | 0.0 | 0.00 | 0.15 | 0.15 | 87 | 1010.6 |
| 20260506225814 | 16 | 11 | 0.0 | 4.8 | 0.00 | 0.15 | 0.15 | 87 | 1011.1 |
| 20260506225312 | 16 | 114 | 4.8 | 9.7 | 0.00 | 0.15 | 0.15 | 85 | 1010.8 |
| 20260506224808 | 16 | 112 | 3.2 | 4.8 | 0.00 | 0.15 | 0.15 | 87 | 1010.7 |
| 20260506224306 | 16 | 48 | 3.2 | 6.4 | 0.00 | 0.15 | 0.15 | 87 | 1010.8 |
| 20260506223802 | 16 | 20 | 0.0 | 0.0 | 0.00 | 0.15 | 0.15 | 86 | 1010.8 |
| 20260506223257 | 16 | 92 | 0.0 | 0.0 | 0.00 | 0.15 | 0.15 | 86 | 1010.8 |
| 20260506222754 | 17 | 1 | 0.0 | 0.0 | 0.00 | 0.15 | 0.15 | 85 | 1010.6 |
| 20260506222250 | 17 | 175 | 0.0 | 1.6 | 0.00 | 0.15 | 0.15 | 87 | 1010.6 |
| 20260506221748 | 17 | 127 | 1.6 | 4.8 | 0.00 | 0.15 | 0.15 | 87 | 1010.4 |
| 20260506221246 | 17 | 121 | 1.6 | 6.4 | 0.00 | 0.15 | 0.15 | 85 | 1010.2 |
| 20260506220743 | 17 | 8 | 0.0 | 3.2 | 0.00 | 0.15 | 0.15 | 86 | 1010.4 |
| 20260506220237 | 17 | 99 | 1.6 | 1.6 | 0.00 | 0.15 | 0.15 | 87 | 1010.5 |
| 20260506215735 | 17 | 98 | 0.0 | 3.2 | 0.00 | 0.15 | 0.15 | 87 | 1010.3 |
| 20260506215230 | 17 | 99 | 3.2 | 4.8 | 0.00 | 0.15 | 0.15 | 86 | 1010.2 |
| 20260506214727 | 17 | 44 | 1.6 | 6.4 | 0.00 | 0.15 | 0.15 | 85 | 1010.3 |
| 20260506214224 | 17 | 27 | 6.4 | 9.7 | 0.00 | 0.15 | 0.15 | 83 | 1009.9 |
| 20260506213722 | 18 | 65 | 1.6 | 4.8 | 0.00 | 0.15 | 0.15 | 82 | 1009.7 |
| 20260506213219 | 18 | 129 | 6.4 | 6.4 | 0.00 | 0.15 | 0.15 | 82 | 1009.9 |
| 20260506212716 | 18 | 355 | 3.2 | 4.8 | 0.00 | 0.15 | 0.15 | 80 | 1009.6 |
| 20260506212212 | 19 | 45 | 1.6 | 6.4 | 0.00 | 0.15 | 0.15 | 79 | 1009.2 |